Rome Heights, Illinois
Current Conditions -  °F | °C
As of 12:15 PM on Sunday 25 Jan 2015 (Local Time) from KC75 Reporting Station
Unknown Precip Unknown Precip  
Wind Chill: 24°   Ceiling: 1000
Heat Index: 32°   Visibility: 2mi
Dew Point: 31°   Wind: 9mph
Humidity: 94%   Direction: 30°NNE
Pressure: 29.74"   Gusts: 21mph
Location:  40.915°N, 89.5303°W
Report Text: KC75 251815Z AUTO 03008G18KT 2SM UP OVC010 00/M01 A2974 RMK AO2 T00011007
Loading
Personal Weather Stations






























Interactive Weather Map New forecast layout! Learn more

10-Day Weather Forecast

Advertisements
Track Severe Weather on mobile